sensor_id;sensor_type;location;lat;lon;timestamp;P1;durP1;ratioP1;P2;durP2;ratioP2
58196;SDS011;43999;51.660;5.616;2022-07-12T00:02:23;7.70;;;7.10;;
58196;SDS011;43999;51.660;5.616;2022-07-12T00:04:50;8.20;;;7.15;;
58196;SDS011;43999;51.660;5.616;2022-07-12T00:07:18;8.27;;;7.57;;
58196;SDS011;43999;51.660;5.616;2022-07-12T00:09:46;7.68;;;7.07;;
58196;SDS011;43999;51.660;5.616;2022-07-12T00:12:13;8.30;;;7.15;;
58196;SDS011;43999;51.660;5.616;2022-07-12T00:14:40;9.02;;;8.18;;
58196;SDS011;43999;51.660;5.616;2022-07-12T00:17:08;9.23;;;8.35;;
58196;SDS011;43999;51.660;5.616;2022-07-12T00:19:35;9.73;;;7.90;;
58196;SDS011;43999;51.660;5.616;2022-07-12T00:22:02;8.32;;;7.63;;
58196;SDS011;43999;51.660;5.616;2022-07-12T00:24:30;8.52;;;7.72;;
58196;SDS011;43999;51.660;5.616;2022-07-12T00:30:55;7.85;;;7.25;;
58196;SDS011;43999;51.660;5.616;2022-07-12T00:33:24;8.48;;;7.78;;
58196;SDS011;43999;51.660;5.616;2022-07-12T00:35:52;8.77;;;8.07;;
58196;SDS011;43999;51.660;5.616;2022-07-12T00:38:19;8.20;;;7.53;;
58196;SDS011;43999;51.660;5.616;2022-07-12T00:40:47;8.57;;;7.97;;
58196;SDS011;43999;51.660;5.616;2022-07-12T00:43:15;8.02;;;7.28;;
58196;SDS011;43999;51.660;5.616;2022-07-12T00:45:46;8.95;;;8.20;;
58196;SDS011;43999;51.660;5.616;2022-07-12T00:48:16;9.35;;;8.55;;
58196;SDS011;43999;51.660;5.616;2022-07-12T00:50:45;8.70;;;8.02;;
58196;SDS011;43999;51.660;5.616;2022-07-12T00:53:14;9.70;;;8.70;;
58196;SDS011;43999;51.660;5.616;2022-07-12T00:55:44;9.77;;;8.75;;
58196;SDS011;43999;51.660;5.616;2022-07-12T00:58:15;8.40;;;7.60;;
58196;SDS011;43999;51.660;5.616;2022-07-12T01:00:42;9.05;;;8.27;;
58196;SDS011;43999;51.660;5.616;2022-07-12T01:03:10;8.88;;;8.07;;
58196;SDS011;43999;51.660;5.616;2022-07-12T01:05:40;9.43;;;8.63;;
58196;SDS011;43999;51.660;5.616;2022-07-12T01:08:11;8.95;;;8.13;;
58196;SDS011;43999;51.660;5.616;2022-07-12T01:10:41;7.53;;;6.90;;
58196;SDS011;43999;51.660;5.616;2022-07-12T01:13:11;8.75;;;8.02;;
58196;SDS011;43999;51.660;5.616;2022-07-12T01:15:41;8.75;;;8.10;;
58196;SDS011;43999;51.660;5.616;2022-07-12T01:18:09;9.10;;;8.00;;
58196;SDS011;43999;51.660;5.616;2022-07-12T01:20:37;8.80;;;8.10;;
58196;SDS011;43999;51.660;5.616;2022-07-12T01:23:05;8.35;;;7.65;;
58196;SDS011;43999;51.660;5.616;2022-07-12T01:25:34;7.85;;;7.15;;
58196;SDS011;43999;51.660;5.616;2022-07-12T01:28:02;7.97;;;7.25;;
58196;SDS011;43999;51.660;5.616;2022-07-12T01:30:30;8.38;;;7.68;;
58196;SDS011;43999;51.660;5.616;2022-07-12T01:32:58;7.88;;;7.20;;
58196;SDS011;43999;51.660;5.616;2022-07-12T01:35:27;9.52;;;8.82;;
58196;SDS011;43999;51.660;5.616;2022-07-12T01:37:56;8.90;;;8.10;;
58196;SDS011;43999;51.660;5.616;2022-07-12T01:40:24;8.57;;;7.75;;
58196;SDS011;43999;51.660;5.616;2022-07-12T01:42:51;9.55;;;8.60;;
58196;SDS011;43999;51.660;5.616;2022-07-12T01:45:20;8.63;;;7.93;;
58196;SDS011;43999;51.660;5.616;2022-07-12T01:47:47;9.25;;;8.45;;
58196;SDS011;43999;51.660;5.616;2022-07-12T01:50:18;9.98;;;9.10;;
58196;SDS011;43999;51.660;5.616;2022-07-12T01:52:45;8.38;;;7.57;;
58196;SDS011;43999;51.660;5.616;2022-07-12T01:55:13;8.77;;;8.10;;
58196;SDS011;43999;51.660;5.616;2022-07-12T01:57:43;8.50;;;7.90;;
58196;SDS011;43999;51.660;5.616;2022-07-12T02:00:11;8.15;;;7.47;;
58196;SDS011;43999;51.660;5.616;2022-07-12T02:02:41;10.13;;;9.13;;
58196;SDS011;43999;51.660;5.616;2022-07-12T02:05:11;9.00;;;8.30;;
58196;SDS011;43999;51.660;5.616;2022-07-12T02:07:39;10.63;;;9.60;;
58196;SDS011;43999;51.660;5.616;2022-07-12T02:10:07;9.60;;;8.80;;
58196;SDS011;43999;51.660;5.616;2022-07-12T02:12:35;9.52;;;8.75;;
58196;SDS011;43999;51.660;5.616;2022-07-12T02:15:04;9.43;;;8.63;;
58196;SDS011;43999;51.660;5.616;2022-07-12T02:17:34;9.55;;;8.57;;
58196;SDS011;43999;51.660;5.616;2022-07-12T02:20:02;9.95;;;9.05;;
58196;SDS011;43999;51.660;5.616;2022-07-12T02:22:31;10.27;;;9.38;;
58196;SDS011;43999;51.660;5.616;2022-07-12T02:24:58;9.75;;;9.05;;
58196;SDS011;43999;51.660;5.616;2022-07-12T02:27:25;9.90;;;8.95;;
58196;SDS011;43999;51.660;5.616;2022-07-12T02:29:53;10.60;;;9.60;;
58196;SDS011;43999;51.660;5.616;2022-07-12T02:32:20;10.15;;;9.35;;
58196;SDS011;43999;51.660;5.616;2022-07-12T02:34:47;10.85;;;9.95;;
58196;SDS011;43999;51.660;5.616;2022-07-12T02:37:14;10.13;;;9.30;;
58196;SDS011;43999;51.660;5.616;2022-07-12T02:39:41;11.63;;;10.63;;
58196;SDS011;43999;51.660;5.616;2022-07-12T02:42:09;11.52;;;10.55;;
58196;SDS011;43999;51.660;5.616;2022-07-12T02:44:36;9.98;;;9.13;;
58196;SDS011;43999;51.660;5.616;2022-07-12T02:47:03;10.13;;;9.13;;
58196;SDS011;43999;51.660;5.616;2022-07-12T02:49:31;11.88;;;10.80;;
58196;SDS011;43999;51.660;5.616;2022-07-12T02:51:58;13.00;;;11.65;;
58196;SDS011;43999;51.660;5.616;2022-07-12T02:54:25;11.60;;;10.60;;
58196;SDS011;43999;51.660;5.616;2022-07-12T02:56:52;11.20;;;10.20;;
58196;SDS011;43999;51.660;5.616;2022-07-12T02:59:20;12.90;;;11.90;;
58196;SDS011;43999;51.660;5.616;2022-07-12T03:01:47;11.20;;;10.23;;
58196;SDS011;43999;51.660;5.616;2022-07-12T03:04:15;14.75;;;12.98;;
58196;SDS011;43999;51.660;5.616;2022-07-12T03:06:42;12.40;;;11.43;;
58196;SDS011;43999;51.660;5.616;2022-07-12T03:09:09;12.52;;;11.43;;
58196;SDS011;43999;51.660;5.616;2022-07-12T03:11:38;15.57;;;14.27;;
58196;SDS011;43999;51.660;5.616;2022-07-12T03:14:05;14.65;;;13.38;;
58196;SDS011;43999;51.660;5.616;2022-07-12T03:16:33;12.50;;;11.40;;
58196;SDS011;43999;51.660;5.616;2022-07-12T03:19:00;15.48;;;14.23;;
58196;SDS011;43999;51.660;5.616;2022-07-12T03:21:27;12.38;;;11.35;;
58196;SDS011;43999;51.660;5.616;2022-07-12T03:23:55;12.82;;;11.55;;
58196;SDS011;43999;51.660;5.616;2022-07-12T03:26:22;13.23;;;12.02;;
58196;SDS011;43999;51.660;5.616;2022-07-12T03:28:49;14.00;;;12.40;;
58196;SDS011;43999;51.660;5.616;2022-07-12T03:31:17;12.93;;;11.63;;
58196;SDS011;43999;51.660;5.616;2022-07-12T03:33:44;13.77;;;12.38;;
58196;SDS011;43999;51.660;5.616;2022-07-12T03:36:11;12.57;;;11.50;;
58196;SDS011;43999;51.660;5.616;2022-07-12T03:38:39;12.80;;;11.70;;
58196;SDS011;43999;51.660;5.616;2022-07-12T03:41:07;11.68;;;10.52;;
58196;SDS011;43999;51.660;5.616;2022-07-12T03:43:34;12.77;;;11.48;;
58196;SDS011;43999;51.660;5.616;2022-07-12T03:46:01;14.90;;;12.55;;
58196;SDS011;43999;51.660;5.616;2022-07-12T03:48:28;13.05;;;11.75;;
58196;SDS011;43999;51.660;5.616;2022-07-12T03:50:55;13.52;;;12.20;;
58196;SDS011;43999;51.660;5.616;2022-07-12T03:53:23;10.88;;;9.90;;
58196;SDS011;43999;51.660;5.616;2022-07-12T03:55:51;11.73;;;10.77;;
58196;SDS011;43999;51.660;5.616;2022-07-12T03:58:18;10.43;;;9.30;;
58196;SDS011;43999;51.660;5.616;2022-07-12T04:00:45;13.35;;;12.15;;
58196;SDS011;43999;51.660;5.616;2022-07-12T04:03:12;11.23;;;10.13;;
58196;SDS011;43999;51.660;5.616;2022-07-12T04:05:40;12.43;;;11.32;;
58196;SDS011;43999;51.660;5.616;2022-07-12T04:08:07;14.38;;;13.07;;
58196;SDS011;43999;51.660;5.616;2022-07-12T04:10:34;13.05;;;11.95;;
58196;SDS011;43999;51.660;5.616;2022-07-12T04:13:01;12.85;;;11.57;;
58196;SDS011;43999;51.660;5.616;2022-07-12T04:15:29;15.02;;;13.52;;
58196;SDS011;43999;51.660;5.616;2022-07-12T04:17:56;14.07;;;12.10;;
58196;SDS011;43999;51.660;5.616;2022-07-12T04:20:23;15.93;;;14.43;;
58196;SDS011;43999;51.660;5.616;2022-07-12T04:22:51;14.85;;;13.45;;
58196;SDS011;43999;51.660;5.616;2022-07-12T04:25:18;16.60;;;14.98;;
58196;SDS011;43999;51.660;5.616;2022-07-12T04:27:46;16.42;;;14.82;;
58196;SDS011;43999;51.660;5.616;2022-07-12T04:30:13;15.32;;;14.02;;
58196;SDS011;43999;51.660;5.616;2022-07-12T04:32:40;17.50;;;15.95;;
58196;SDS011;43999;51.660;5.616;2022-07-12T04:35:08;18.23;;;16.58;;
58196;SDS011;43999;51.660;5.616;2022-07-12T04:37:35;16.45;;;15.02;;
58196;SDS011;43999;51.660;5.616;2022-07-12T04:40:02;17.20;;;15.82;;
58196;SDS011;43999;51.660;5.616;2022-07-12T04:42:30;17.70;;;15.90;;
58196;SDS011;43999;51.660;5.616;2022-07-12T04:44:57;14.85;;;13.38;;
58196;SDS011;43999;51.660;5.616;2022-07-12T04:47:25;17.60;;;16.20;;
58196;SDS011;43999;51.660;5.616;2022-07-12T04:49:52;17.45;;;15.93;;
58196;SDS011;43999;51.660;5.616;2022-07-12T04:52:19;16.55;;;15.00;;
58196;SDS011;43999;51.660;5.616;2022-07-12T04:54:46;17.10;;;15.68;;
58196;SDS011;43999;51.660;5.616;2022-07-12T04:57:14;16.73;;;15.18;;
58196;SDS011;43999;51.660;5.616;2022-07-12T04:59:41;17.30;;;15.80;;
58196;SDS011;43999;51.660;5.616;2022-07-12T05:02:08;16.45;;;15.02;;
58196;SDS011;43999;51.660;5.616;2022-07-12T05:04:36;17.98;;;16.38;;
58196;SDS011;43999;51.660;5.616;2022-07-12T05:07:03;16.30;;;14.55;;
58196;SDS011;43999;51.660;5.616;2022-07-12T05:09:30;16.75;;;15.25;;
58196;SDS011;43999;51.660;5.616;2022-07-12T05:11:58;16.55;;;15.15;;
58196;SDS011;43999;51.660;5.616;2022-07-12T05:14:25;16.48;;;14.60;;
58196;SDS011;43999;51.660;5.616;2022-07-12T05:16:52;14.55;;;13.15;;
58196;SDS011;43999;51.660;5.616;2022-07-12T05:19:19;15.50;;;14.02;;
58196;SDS011;43999;51.660;5.616;2022-07-12T05:21:47;17.80;;;16.23;;
58196;SDS011;43999;51.660;5.616;2022-07-12T05:24:14;15.70;;;14.40;;
58196;SDS011;43999;51.660;5.616;2022-07-12T05:26:42;16.75;;;15.35;;
58196;SDS011;43999;51.660;5.616;2022-07-12T05:29:09;15.15;;;13.70;;
58196;SDS011;43999;51.660;5.616;2022-07-12T05:31:36;16.02;;;14.52;;
58196;SDS011;43999;51.660;5.616;2022-07-12T05:34:04;14.60;;;13.13;;
58196;SDS011;43999;51.660;5.616;2022-07-12T05:36:31;16.50;;;15.10;;
58196;SDS011;43999;51.660;5.616;2022-07-12T05:38:58;17.25;;;15.85;;
58196;SDS011;43999;51.660;5.616;2022-07-12T05:41:26;15.30;;;14.10;;
58196;SDS011;43999;51.660;5.616;2022-07-12T05:43:53;16.67;;;15.05;;
58196;SDS011;43999;51.660;5.616;2022-07-12T05:46:20;14.82;;;13.43;;
58196;SDS011;43999;51.660;5.616;2022-07-12T05:48:48;13.38;;;12.27;;
58196;SDS011;43999;51.660;5.616;2022-07-12T05:51:15;15.00;;;13.80;;
58196;SDS011;43999;51.660;5.616;2022-07-12T05:54:01;13.63;;;12.50;;
58196;SDS011;43999;51.660;5.616;2022-07-12T05:56:28;13.93;;;12.65;;
58196;SDS011;43999;51.660;5.616;2022-07-12T05:58:55;13.73;;;12.38;;
58196;SDS011;43999;51.660;5.616;2022-07-12T06:01:23;14.20;;;13.00;;
58196;SDS011;43999;51.660;5.616;2022-07-12T06:03:50;15.25;;;13.70;;
58196;SDS011;43999;51.660;5.616;2022-07-12T06:06:17;13.95;;;12.57;;
58196;SDS011;43999;51.660;5.616;2022-07-12T06:08:44;14.55;;;13.45;;
58196;SDS011;43999;51.660;5.616;2022-07-12T06:11:11;13.82;;;12.63;;
58196;SDS011;43999;51.660;5.616;2022-07-12T06:13:39;14.85;;;13.55;;
58196;SDS011;43999;51.660;5.616;2022-07-12T06:16:06;13.63;;;12.57;;
58196;SDS011;43999;51.660;5.616;2022-07-12T06:18:36;16.13;;;14.77;;
58196;SDS011;43999;51.660;5.616;2022-07-12T06:21:04;13.00;;;12.00;;
58196;SDS011;43999;51.660;5.616;2022-07-12T06:23:32;13.32;;;12.30;;
58196;SDS011;43999;51.660;5.616;2022-07-12T06:25:59;13.38;;;12.38;;
58196;SDS011;43999;51.660;5.616;2022-07-12T06:28:26;13.85;;;12.85;;
58196;SDS011;43999;51.660;5.616;2022-07-12T06:30:54;15.07;;;13.88;;
58196;SDS011;43999;51.660;5.616;2022-07-12T06:33:21;13.10;;;12.20;;
58196;SDS011;43999;51.660;5.616;2022-07-12T06:35:49;14.75;;;13.45;;
58196;SDS011;43999;51.660;5.616;2022-07-12T06:38:16;16.83;;;15.52;;
58196;SDS011;43999;51.660;5.616;2022-07-12T06:40:43;16.75;;;15.43;;
58196;SDS011;43999;51.660;5.616;2022-07-12T06:43:11;16.20;;;15.07;;
58196;SDS011;43999;51.660;5.616;2022-07-12T06:45:40;16.35;;;15.05;;
58196;SDS011;43999;51.660;5.616;2022-07-12T06:48:07;15.73;;;14.23;;
58196;SDS011;43999;51.660;5.616;2022-07-12T06:50:35;17.30;;;15.77;;
58196;SDS011;43999;51.660;5.616;2022-07-12T06:53:02;14.55;;;13.38;;
58196;SDS011;43999;51.660;5.616;2022-07-12T06:55:30;16.02;;;14.73;;
58196;SDS011;43999;51.660;5.616;2022-07-12T06:57:57;13.98;;;12.95;;
58196;SDS011;43999;51.660;5.616;2022-07-12T07:00:24;15.73;;;14.52;;
58196;SDS011;43999;51.660;5.616;2022-07-12T07:02:52;15.32;;;14.23;;
58196;SDS011;43999;51.660;5.616;2022-07-12T07:05:19;17.63;;;16.23;;
58196;SDS011;43999;51.660;5.616;2022-07-12T07:07:47;16.00;;;14.80;;
58196;SDS011;43999;51.660;5.616;2022-07-12T07:10:14;15.38;;;14.10;;
58196;SDS011;43999;51.660;5.616;2022-07-12T07:12:41;14.20;;;12.95;;
58196;SDS011;43999;51.660;5.616;2022-07-12T07:15:09;15.60;;;14.40;;
58196;SDS011;43999;51.660;5.616;2022-07-12T07:17:36;15.45;;;14.27;;
58196;SDS011;43999;51.660;5.616;2022-07-12T07:20:04;12.93;;;11.88;;
58196;SDS011;43999;51.660;5.616;2022-07-12T07:22:32;16.60;;;14.95;;
58196;SDS011;43999;51.660;5.616;2022-07-12T07:24:59;13.48;;;12.52;;
58196;SDS011;43999;51.660;5.616;2022-07-12T07:27:26;14.00;;;12.88;;
58196;SDS011;43999;51.660;5.616;2022-07-12T07:29:53;13.80;;;12.38;;
58196;SDS011;43999;51.660;5.616;2022-07-12T07:32:39;14.57;;;13.48;;
58196;SDS011;43999;51.660;5.616;2022-07-12T07:35:07;13.75;;;12.75;;
58196;SDS011;43999;51.660;5.616;2022-07-12T07:37:34;14.05;;;12.88;;
58196;SDS011;43999;51.660;5.616;2022-07-12T07:40:02;15.65;;;14.40;;
58196;SDS011;43999;51.660;5.616;2022-07-12T07:42:30;13.90;;;12.70;;
58196;SDS011;43999;51.660;5.616;2022-07-12T07:44:57;14.73;;;13.43;;
58196;SDS011;43999;51.660;5.616;2022-07-12T07:50:35;15.25;;;13.95;;
58196;SDS011;43999;51.660;5.616;2022-07-12T07:53:02;15.52;;;14.23;;
58196;SDS011;43999;51.660;5.616;2022-07-12T07:55:31;15.65;;;14.35;;
58196;SDS011;43999;51.660;5.616;2022-07-12T07:57:58;15.23;;;14.02;;
58196;SDS011;43999;51.660;5.616;2022-07-12T08:00:27;14.82;;;13.73;;
58196;SDS011;43999;51.660;5.616;2022-07-12T08:02:55;13.50;;;12.50;;
58196;SDS011;43999;51.660;5.616;2022-07-12T08:05:23;16.40;;;14.90;;
58196;SDS011;43999;51.660;5.616;2022-07-12T08:07:55;12.80;;;11.90;;
58196;SDS011;43999;51.660;5.616;2022-07-12T08:10:24;16.00;;;14.60;;
58196;SDS011;43999;51.660;5.616;2022-07-12T08:12:52;15.38;;;14.10;;
58196;SDS011;43999;51.660;5.616;2022-07-12T08:15:20;14.73;;;13.57;;
58196;SDS011;43999;51.660;5.616;2022-07-12T08:17:47;12.55;;;11.60;;
58196;SDS011;43999;51.660;5.616;2022-07-12T08:20:19;13.30;;;12.40;;
58196;SDS011;43999;51.660;5.616;2022-07-12T08:23:09;12.85;;;11.70;;
58196;SDS011;43999;51.660;5.616;2022-07-12T08:25:37;10.90;;;10.10;;
58196;SDS011;43999;51.660;5.616;2022-07-12T08:28:05;12.52;;;11.50;;
58196;SDS011;43999;51.660;5.616;2022-07-12T08:30:32;12.98;;;11.95;;
58196;SDS011;43999;51.660;5.616;2022-07-12T08:33:00;11.13;;;10.23;;
58196;SDS011;43999;51.660;5.616;2022-07-12T08:35:28;13.38;;;12.38;;
58196;SDS011;43999;51.660;5.616;2022-07-12T08:37:55;13.93;;;12.80;;
58196;SDS011;43999;51.660;5.616;2022-07-12T08:40:23;15.35;;;14.30;;
58196;SDS011;43999;51.660;5.616;2022-07-12T08:42:50;16.67;;;15.48;;
58196;SDS011;43999;51.660;5.616;2022-07-12T08:45:17;14.65;;;13.55;;
58196;SDS011;43999;51.660;5.616;2022-07-12T08:47:45;15.35;;;14.32;;
58196;SDS011;43999;51.660;5.616;2022-07-12T08:50:16;13.27;;;12.18;;
58196;SDS011;43999;51.660;5.616;2022-07-12T08:52:52;14.57;;;13.57;;
58196;SDS011;43999;51.660;5.616;2022-07-12T08:55:26;16.10;;;14.68;;
58196;SDS011;43999;51.660;5.616;2022-07-12T08:58:02;15.95;;;14.60;;
58196;SDS011;43999;51.660;5.616;2022-07-12T09:00:42;16.25;;;14.88;;
58196;SDS011;43999;51.660;5.616;2022-07-12T09:03:15;15.00;;;13.95;;
58196;SDS011;43999;51.660;5.616;2022-07-12T09:05:54;15.18;;;13.88;;
58196;SDS011;43999;51.660;5.616;2022-07-12T09:08:28;13.25;;;12.25;;
58196;SDS011;43999;51.660;5.616;2022-07-12T09:11:01;13.07;;;11.98;;
58196;SDS011;43999;51.660;5.616;2022-07-12T09:13:50;15.13;;;13.80;;
58196;SDS011;43999;51.660;5.616;2022-07-12T09:16:21;15.70;;;14.35;;
58196;SDS011;43999;51.660;5.616;2022-07-12T09:19:13;14.77;;;13.07;;
58196;SDS011;43999;51.660;5.616;2022-07-12T09:21:48;15.48;;;14.05;;
58196;SDS011;43999;51.660;5.616;2022-07-12T09:24:19;13.02;;;11.82;;
58196;SDS011;43999;51.660;5.616;2022-07-12T09:27:05;13.75;;;12.70;;
58196;SDS011;43999;51.660;5.616;2022-07-12T09:29:32;13.95;;;12.75;;
58196;SDS011;43999;51.660;5.616;2022-07-12T09:32:25;13.50;;;12.57;;
58196;SDS011;43999;51.660;5.616;2022-07-12T09:35:10;15.52;;;14.23;;
58196;SDS011;43999;51.660;5.616;2022-07-12T09:38:07;16.10;;;14.80;;
58196;SDS011;43999;51.660;5.616;2022-07-12T09:40:36;14.32;;;13.32;;
58196;SDS011;43999;51.660;5.616;2022-07-12T09:43:03;13.82;;;12.73;;
58196;SDS011;43999;51.660;5.616;2022-07-12T09:45:31;13.27;;;12.13;;
58196;SDS011;43999;51.660;5.616;2022-07-12T09:47:59;14.18;;;13.18;;
58196;SDS011;43999;51.660;5.616;2022-07-12T09:50:28;12.52;;;11.57;;
58196;SDS011;43999;51.660;5.616;2022-07-12T09:53:02;13.02;;;12.13;;
58196;SDS011;43999;51.660;5.616;2022-07-12T09:55:30;10.55;;;9.73;;
58196;SDS011;43999;51.660;5.616;2022-07-12T09:58:03;10.13;;;9.32;;
58196;SDS011;43999;51.660;5.616;2022-07-12T10:00:34;12.13;;;11.23;;
58196;SDS011;43999;51.660;5.616;2022-07-12T10:03:02;10.48;;;9.68;;
58196;SDS011;43999;51.660;5.616;2022-07-12T10:05:34;11.00;;;10.20;;
58196;SDS011;43999;51.660;5.616;2022-07-12T10:08:04;10.35;;;9.55;;
58196;SDS011;43999;51.660;5.616;2022-07-12T10:10:32;13.20;;;12.02;;
58196;SDS011;43999;51.660;5.616;2022-07-12T10:13:00;13.75;;;12.63;;
58196;SDS011;43999;51.660;5.616;2022-07-12T10:15:28;11.10;;;10.30;;
58196;SDS011;43999;51.660;5.616;2022-07-12T10:17:59;14.68;;;13.57;;
58196;SDS011;43999;51.660;5.616;2022-07-12T10:20:30;16.73;;;15.45;;
58196;SDS011;43999;51.660;5.616;2022-07-12T10:25:46;12.75;;;11.75;;
58196;SDS011;43999;51.660;5.616;2022-07-12T10:28:14;11.32;;;10.40;;
58196;SDS011;43999;51.660;5.616;2022-07-12T10:30:42;12.82;;;11.82;;
58196;SDS011;43999;51.660;5.616;2022-07-12T10:33:16;13.35;;;12.27;;
58196;SDS011;43999;51.660;5.616;2022-07-12T10:38:32;11.13;;;10.13;;
58196;SDS011;43999;51.660;5.616;2022-07-12T10:41:15;10.95;;;10.05;;
58196;SDS011;43999;51.660;5.616;2022-07-12T10:43:46;9.98;;;8.00;;
58196;SDS011;43999;51.660;5.616;2022-07-12T10:46:31;11.95;;;10.75;;
58196;SDS011;43999;51.660;5.616;2022-07-12T10:57:37;9.30;;;8.50;;
58196;SDS011;43999;51.660;5.616;2022-07-12T11:00:17;8.82;;;7.93;;
58196;SDS011;43999;51.660;5.616;2022-07-12T11:02:46;10.98;;;9.93;;
58196;SDS011;43999;51.660;5.616;2022-07-12T11:05:13;11.77;;;10.77;;
58196;SDS011;43999;51.660;5.616;2022-07-12T11:07:41;9.85;;;8.95;;
58196;SDS011;43999;51.660;5.616;2022-07-12T11:10:11;9.25;;;8.45;;
58196;SDS011;43999;51.660;5.616;2022-07-12T11:12:40;9.18;;;8.38;;
58196;SDS011;43999;51.660;5.616;2022-07-12T11:15:07;6.55;;;5.90;;
58196;SDS011;43999;51.660;5.616;2022-07-12T11:17:35;7.68;;;7.07;;
58196;SDS011;43999;51.660;5.616;2022-07-12T11:20:12;7.13;;;6.53;;
58196;SDS011;43999;51.660;5.616;2022-07-12T11:22:41;9.88;;;6.63;;
58196;SDS011;43999;51.660;5.616;2022-07-12T11:25:10;7.80;;;6.53;;
58196;SDS011;43999;51.660;5.616;2022-07-12T11:27:39;7.35;;;6.55;;
58196;SDS011;43999;51.660;5.616;2022-07-12T11:30:07;9.48;;;8.77;;
58196;SDS011;43999;51.660;5.616;2022-07-12T11:32:38;8.68;;;7.82;;
58196;SDS011;43999;51.660;5.616;2022-07-12T11:35:23;7.90;;;7.18;;
58196;SDS011;43999;51.660;5.616;2022-07-12T11:37:55;8.80;;;7.75;;
58196;SDS011;43999;51.660;5.616;2022-07-12T11:40:29;9.35;;;8.30;;
58196;SDS011;43999;51.660;5.616;2022-07-12T11:42:58;7.60;;;6.78;;
58196;SDS011;43999;51.660;5.616;2022-07-12T11:45:28;8.40;;;7.53;;
58196;SDS011;43999;51.660;5.616;2022-07-12T11:48:00;10.65;;;9.75;;
58196;SDS011;43999;51.660;5.616;2022-07-12T11:50:30;12.05;;;11.07;;
58196;SDS011;43999;51.660;5.616;2022-07-12T11:53:02;11.75;;;10.73;;
58196;SDS011;43999;51.660;5.616;2022-07-12T11:55:30;9.88;;;9.07;;
58196;SDS011;43999;51.660;5.616;2022-07-12T11:58:10;8.80;;;7.95;;
58196;SDS011;43999;51.660;5.616;2022-07-12T12:00:39;11.00;;;9.82;;
58196;SDS011;43999;51.660;5.616;2022-07-12T12:03:07;10.40;;;9.43;;
58196;SDS011;43999;51.660;5.616;2022-07-12T12:05:35;9.75;;;8.52;;
58196;SDS011;43999;51.660;5.616;2022-07-12T12:08:04;9.45;;;8.65;;
58196;SDS011;43999;51.660;5.616;2022-07-12T12:10:34;8.00;;;7.05;;
58196;SDS011;43999;51.660;5.616;2022-07-12T12:13:01;9.32;;;8.52;;
58196;SDS011;43999;51.660;5.616;2022-07-12T12:15:33;9.55;;;8.57;;
58196;SDS011;43999;51.660;5.616;2022-07-12T12:23:06;8.32;;;7.65;;
58196;SDS011;43999;51.660;5.616;2022-07-12T12:25:46;9.45;;;8.55;;
58196;SDS011;43999;51.660;5.616;2022-07-12T12:28:20;7.10;;;6.55;;
58196;SDS011;43999;51.660;5.616;2022-07-12T12:30:54;6.45;;;5.38;;
58196;SDS011;43999;51.660;5.616;2022-07-12T12:33:36;7.00;;;5.43;;
58196;SDS011;43999;51.660;5.616;2022-07-12T12:36:12;6.10;;;5.60;;
58196;SDS011;43999;51.660;5.616;2022-07-12T12:38:56;6.53;;;5.88;;
58196;SDS011;43999;51.660;5.616;2022-07-12T12:41:29;7.20;;;6.50;;
58196;SDS011;43999;51.660;5.616;2022-07-12T12:44:10;5.68;;;5.13;;
58196;SDS011;43999;51.660;5.616;2022-07-12T12:46:44;5.85;;;4.60;;
58196;SDS011;43999;51.660;5.616;2022-07-12T12:49:43;5.60;;;4.80;;
58196;SDS011;43999;51.660;5.616;2022-07-12T12:52:22;6.00;;;5.43;;
58196;SDS011;43999;51.660;5.616;2022-07-12T12:54:52;7.65;;;5.72;;
58196;SDS011;43999;51.660;5.616;2022-07-12T12:57:20;7.18;;;6.57;;
58196;SDS011;43999;51.660;5.616;2022-07-12T12:59:50;5.57;;;5.07;;
58196;SDS011;43999;51.660;5.616;2022-07-12T13:02:20;4.35;;;3.95;;
58196;SDS011;43999;51.660;5.616;2022-07-12T13:04:50;10.70;;;4.45;;
58196;SDS011;43999;51.660;5.616;2022-07-12T13:07:18;4.20;;;3.47;;
58196;SDS011;43999;51.660;5.616;2022-07-12T13:09:45;3.83;;;3.45;;
58196;SDS011;43999;51.660;5.616;2022-07-12T13:12:12;7.00;;;4.68;;
58196;SDS011;43999;51.660;5.616;2022-07-12T13:14:39;5.60;;;5.10;;
58196;SDS011;43999;51.660;5.616;2022-07-12T13:17:07;6.03;;;4.35;;
58196;SDS011;43999;51.660;5.616;2022-07-12T13:19:34;3.97;;;3.42;;
58196;SDS011;43999;51.660;5.616;2022-07-12T13:22:01;6.65;;;4.65;;
58196;SDS011;43999;51.660;5.616;2022-07-12T13:24:29;4.00;;;3.65;;
58196;SDS011;43999;51.660;5.616;2022-07-12T13:26:56;4.20;;;3.80;;
58196;SDS011;43999;51.660;5.616;2022-07-12T13:29:23;6.22;;;5.13;;
58196;SDS011;43999;51.660;5.616;2022-07-12T13:31:51;5.07;;;4.68;;
58196;SDS011;43999;51.660;5.616;2022-07-12T13:34:22;8.93;;;6.63;;
58196;SDS011;43999;51.660;5.616;2022-07-12T13:36:50;6.85;;;6.25;;
58196;SDS011;43999;51.660;5.616;2022-07-12T13:39:18;6.68;;;6.03;;
58196;SDS011;43999;51.660;5.616;2022-07-12T13:42:04;5.10;;;4.60;;
58196;SDS011;43999;51.660;5.616;2022-07-12T13:44:32;5.28;;;4.78;;
58196;SDS011;43999;51.660;5.616;2022-07-12T13:46:59;6.22;;;5.38;;
58196;SDS011;43999;51.660;5.616;2022-07-12T13:49:26;4.53;;;4.00;;
58196;SDS011;43999;51.660;5.616;2022-07-12T13:51:54;4.90;;;4.50;;
58196;SDS011;43999;51.660;5.616;2022-07-12T13:54:21;6.57;;;5.97;;
58196;SDS011;43999;51.660;5.616;2022-07-12T13:56:48;6.78;;;6.28;;
58196;SDS011;43999;51.660;5.616;2022-07-12T13:59:15;6.00;;;5.50;;
58196;SDS011;43999;51.660;5.616;2022-07-12T14:01:43;6.65;;;6.05;;
58196;SDS011;43999;51.660;5.616;2022-07-12T14:04:10;5.38;;;4.88;;
58196;SDS011;43999;51.660;5.616;2022-07-12T14:06:38;5.95;;;5.43;;
58196;SDS011;43999;51.660;5.616;2022-07-12T14:09:05;5.75;;;5.35;;
58196;SDS011;43999;51.660;5.616;2022-07-12T14:11:33;7.28;;;5.50;;
58196;SDS011;43999;51.660;5.616;2022-07-12T14:14:00;7.53;;;6.55;;
58196;SDS011;43999;51.660;5.616;2022-07-12T14:16:27;7.50;;;5.05;;
58196;SDS011;43999;51.660;5.616;2022-07-12T14:18:55;6.03;;;5.18;;
58196;SDS011;43999;51.660;5.616;2022-07-12T14:21:22;5.35;;;4.85;;
58196;SDS011;43999;51.660;5.616;2022-07-12T14:23:50;6.47;;;4.70;;
58196;SDS011;43999;51.660;5.616;2022-07-12T14:26:17;5.15;;;4.75;;
58196;SDS011;43999;51.660;5.616;2022-07-12T14:28:45;5.75;;;5.10;;
58196;SDS011;43999;51.660;5.616;2022-07-12T14:31:12;7.13;;;5.53;;
58196;SDS011;43999;51.660;5.616;2022-07-12T14:33:40;5.78;;;5.30;;
58196;SDS011;43999;51.660;5.616;2022-07-12T14:36:07;6.40;;;5.50;;
58196;SDS011;43999;51.660;5.616;2022-07-12T14:38:35;7.15;;;5.20;;
58196;SDS011;43999;51.660;5.616;2022-07-12T14:41:02;6.25;;;5.75;;
58196;SDS011;43999;51.660;5.616;2022-07-12T14:43:29;8.00;;;6.47;;
58196;SDS011;43999;51.660;5.616;2022-07-12T14:45:57;6.43;;;5.82;;
58196;SDS011;43999;51.660;5.616;2022-07-12T14:48:24;6.82;;;6.32;;
58196;SDS011;43999;51.660;5.616;2022-07-12T14:50:51;8.30;;;5.68;;
58196;SDS011;43999;51.660;5.616;2022-07-12T14:53:20;5.72;;;5.22;;
58196;SDS011;43999;51.660;5.616;2022-07-12T14:55:48;6.20;;;5.60;;
58196;SDS011;43999;51.660;5.616;2022-07-12T14:58:16;8.02;;;5.93;;
58196;SDS011;43999;51.660;5.616;2022-07-12T15:00:44;6.75;;;5.88;;
58196;SDS011;43999;51.660;5.616;2022-07-12T15:03:11;5.50;;;5.00;;
58196;SDS011;43999;51.660;5.616;2022-07-12T15:05:39;8.55;;;4.88;;
58196;SDS011;43999;51.660;5.616;2022-07-12T15:08:07;5.95;;;5.32;;
58196;SDS011;43999;51.660;5.616;2022-07-12T15:10:37;7.45;;;5.70;;
58196;SDS011;43999;51.660;5.616;2022-07-12T15:13:05;5.07;;;4.57;;